sensor_id;sensor_type;location;lat;lon;timestamp;temperature;humidity
8778;DHT22;4425;50.872;4.712;2022-10-31T00:00:43;14.30;99.90
8778;DHT22;4425;50.872;4.712;2022-10-31T00:03:10;14.30;99.90
8778;DHT22;4425;50.872;4.712;2022-10-31T00:05:41;14.30;99.90
8778;DHT22;4425;50.872;4.712;2022-10-31T00:08:09;14.30;99.90
8778;DHT22;4425;50.872;4.712;2022-10-31T00:10:37;14.30;99.90
8778;DHT22;4425;50.872;4.712;2022-10-31T00:13:06;14.30;99.90
8778;DHT22;4425;50.872;4.712;2022-10-31T00:15:34;14.30;99.90
8778;DHT22;4425;50.872;4.712;2022-10-31T00:18:01;14.30;99.90
8778;DHT22;4425;50.872;4.712;2022-10-31T00:20:29;14.40;99.90
8778;DHT22;4425;50.872;4.712;2022-10-31T00:22:57;14.30;99.90
8778;DHT22;4425;50.872;4.712;2022-10-31T00:25:27;14.30;99.90
8778;DHT22;4425;50.872;4.712;2022-10-31T00:27:55;14.20;99.90
8778;DHT22;4425;50.872;4.712;2022-10-31T00:30:23;14.20;99.90
8778;DHT22;4425;50.872;4.712;2022-10-31T00:32:51;14.20;99.90
8778;DHT22;4425;50.872;4.712;2022-10-31T00:35:18;14.10;99.90
8778;DHT22;4425;50.872;4.712;2022-10-31T00:37:45;14.10;99.90
8778;DHT22;4425;50.872;4.712;2022-10-31T00:40:12;14.10;99.90
8778;DHT22;4425;50.872;4.712;2022-10-31T00:42:43;14.00;99.90
8778;DHT22;4425;50.872;4.712;2022-10-31T00:45:10;14.00;99.90
8778;DHT22;4425;50.872;4.712;2022-10-31T00:47:38;14.00;99.90
8778;DHT22;4425;50.872;4.712;2022-10-31T00:50:08;14.10;99.90
8778;DHT22;4425;50.872;4.712;2022-10-31T00:52:35;14.00;99.90
8778;DHT22;4425;50.872;4.712;2022-10-31T00:55:03;13.90;99.90
8778;DHT22;4425;50.872;4.712;2022-10-31T00:57:30;14.00;99.90
8778;DHT22;4425;50.872;4.712;2022-10-31T01:00:05;14.00;99.90
8778;DHT22;4425;50.872;4.712;2022-10-31T01:02:32;13.90;99.90
8778;DHT22;4425;50.872;4.712;2022-10-31T01:04:59;13.90;99.90
8778;DHT22;4425;50.872;4.712;2022-10-31T01:07:26;13.90;99.90
8778;DHT22;4425;50.872;4.712;2022-10-31T01:09:54;14.00;99.90
8778;DHT22;4425;50.872;4.712;2022-10-31T01:12:21;13.90;99.90
8778;DHT22;4425;50.872;4.712;2022-10-31T01:14:48;13.80;99.90
8778;DHT22;4425;50.872;4.712;2022-10-31T01:17:17;13.80;99.90
8778;DHT22;4425;50.872;4.712;2022-10-31T01:19:45;13.90;99.90
8778;DHT22;4425;50.872;4.712;2022-10-31T01:22:12;13.90;99.90
8778;DHT22;4425;50.872;4.712;2022-10-31T01:24:39;13.90;99.90
8778;DHT22;4425;50.872;4.712;2022-10-31T01:27:06;13.90;99.90
8778;DHT22;4425;50.872;4.712;2022-10-31T01:29:33;13.80;99.90
8778;DHT22;4425;50.872;4.712;2022-10-31T01:32:00;13.80;99.90
8778;DHT22;4425;50.872;4.712;2022-10-31T01:34:30;13.70;99.90
8778;DHT22;4425;50.872;4.712;2022-10-31T01:36:58;13.60;99.90
8778;DHT22;4425;50.872;4.712;2022-10-31T01:39:25;13.60;99.90
8778;DHT22;4425;50.872;4.712;2022-10-31T01:41:53;13.60;99.90
8778;DHT22;4425;50.872;4.712;2022-10-31T01:47:37;13.60;99.90
8778;DHT22;4425;50.872;4.712;2022-10-31T01:50:12;13.60;99.90
8778;DHT22;4425;50.872;4.712;2022-10-31T01:52:45;13.50;99.90
8778;DHT22;4425;50.872;4.712;2022-10-31T01:55:15;13.50;99.90
8778;DHT22;4425;50.872;4.712;2022-10-31T01:57:46;13.50;99.90
8778;DHT22;4425;50.872;4.712;2022-10-31T02:00:15;13.60;99.90
8778;DHT22;4425;50.872;4.712;2022-10-31T02:02:42;13.40;99.90
8778;DHT22;4425;50.872;4.712;2022-10-31T02:05:16;13.50;99.90
8778;DHT22;4425;50.872;4.712;2022-10-31T02:07:50;13.50;99.90
8778;DHT22;4425;50.872;4.712;2022-10-31T02:10:21;13.50;99.90
8778;DHT22;4425;50.872;4.712;2022-10-31T02:12:49;13.50;99.90
8778;DHT22;4425;50.872;4.712;2022-10-31T02:15:17;13.30;99.90
8778;DHT22;4425;50.872;4.712;2022-10-31T02:17:44;13.30;99.90
8778;DHT22;4425;50.872;4.712;2022-10-31T02:20:16;13.30;99.90
8778;DHT22;4425;50.872;4.712;2022-10-31T02:23:19;13.30;99.90
8778;DHT22;4425;50.872;4.712;2022-10-31T02:26:16;13.20;99.90
8778;DHT22;4425;50.872;4.712;2022-10-31T02:29:02;13.20;99.90
8778;DHT22;4425;50.872;4.712;2022-10-31T02:31:40;13.20;99.90
8778;DHT22;4425;50.872;4.712;2022-10-31T02:34:16;13.10;99.90
8778;DHT22;4425;50.872;4.712;2022-10-31T02:36:52;13.10;99.90
8778;DHT22;4425;50.872;4.712;2022-10-31T02:39:24;13.10;99.90
8778;DHT22;4425;50.872;4.712;2022-10-31T02:42:02;13.00;99.90
8778;DHT22;4425;50.872;4.712;2022-10-31T02:44:36;13.10;99.90
8778;DHT22;4425;50.872;4.712;2022-10-31T02:47:09;13.10;99.90
8778;DHT22;4425;50.872;4.712;2022-10-31T02:49:42;13.10;99.90
8778;DHT22;4425;50.872;4.712;2022-10-31T02:52:17;13.10;99.90
8778;DHT22;4425;50.872;4.712;2022-10-31T02:54:45;13.10;99.90
8778;DHT22;4425;50.872;4.712;2022-10-31T02:57:13;13.10;99.90
8778;DHT22;4425;50.872;4.712;2022-10-31T02:59:46;13.10;99.90
8778;DHT22;4425;50.872;4.712;2022-10-31T03:05:33;13.20;99.90
8778;DHT22;4425;50.872;4.712;2022-10-31T03:08:08;13.20;99.90
8778;DHT22;4425;50.872;4.712;2022-10-31T03:10:44;13.20;99.90
8778;DHT22;4425;50.872;4.712;2022-10-31T03:13:21;13.10;99.90
8778;DHT22;4425;50.872;4.712;2022-10-31T03:15:53;13.10;99.90
8778;DHT22;4425;50.872;4.712;2022-10-31T03:18:28;13.00;99.90
8778;DHT22;4425;50.872;4.712;2022-10-31T03:21:00;13.20;99.90
8778;DHT22;4425;50.872;4.712;2022-10-31T03:23:30;13.00;99.90
8778;DHT22;4425;50.872;4.712;2022-10-31T03:26:04;13.10;99.90
8778;DHT22;4425;50.872;4.712;2022-10-31T03:28:36;13.00;99.90
8778;DHT22;4425;50.872;4.712;2022-10-31T03:31:05;13.00;99.90
8778;DHT22;4425;50.872;4.712;2022-10-31T03:33:36;13.00;99.90
8778;DHT22;4425;50.872;4.712;2022-10-31T03:36:06;13.10;99.90
8778;DHT22;4425;50.872;4.712;2022-10-31T03:38:39;13.10;99.90
8778;DHT22;4425;50.872;4.712;2022-10-31T03:41:14;13.20;99.90
8778;DHT22;4425;50.872;4.712;2022-10-31T03:43:48;13.20;99.90
8778;DHT22;4425;50.872;4.712;2022-10-31T03:46:18;13.20;99.90
8778;DHT22;4425;50.872;4.712;2022-10-31T03:48:47;13.20;99.90
8778;DHT22;4425;50.872;4.712;2022-10-31T03:51:18;13.10;99.90
8778;DHT22;4425;50.872;4.712;2022-10-31T03:53:51;13.20;99.90
8778;DHT22;4425;50.872;4.712;2022-10-31T03:56:23;13.10;99.90
8778;DHT22;4425;50.872;4.712;2022-10-31T03:58:58;13.10;99.90
8778;DHT22;4425;50.872;4.712;2022-10-31T04:01:30;13.20;99.90
8778;DHT22;4425;50.872;4.712;2022-10-31T04:04:00;13.20;99.90
8778;DHT22;4425;50.872;4.712;2022-10-31T04:06:29;13.20;99.90
8778;DHT22;4425;50.872;4.712;2022-10-31T04:09:00;13.20;99.90
8778;DHT22;4425;50.872;4.712;2022-10-31T04:11:32;13.20;99.90
8778;DHT22;4425;50.872;4.712;2022-10-31T04:14:00;13.30;99.90
8778;DHT22;4425;50.872;4.712;2022-10-31T04:16:31;13.10;99.90
8778;DHT22;4425;50.872;4.712;2022-10-31T04:18:59;13.20;99.90
8778;DHT22;4425;50.872;4.712;2022-10-31T04:21:28;13.10;99.90
8778;DHT22;4425;50.872;4.712;2022-10-31T04:23:57;13.00;99.90
8778;DHT22;4425;50.872;4.712;2022-10-31T04:26:25;13.00;99.90
8778;DHT22;4425;50.872;4.712;2022-10-31T04:28:53;13.00;99.90
8778;DHT22;4425;50.872;4.712;2022-10-31T04:31:22;12.90;99.90
8778;DHT22;4425;50.872;4.712;2022-10-31T04:33:50;12.90;99.90
8778;DHT22;4425;50.872;4.712;2022-10-31T04:36:19;12.90;99.90
8778;DHT22;4425;50.872;4.712;2022-10-31T04:38:47;12.80;99.90
8778;DHT22;4425;50.872;4.712;2022-10-31T04:41:14;12.80;99.90
8778;DHT22;4425;50.872;4.712;2022-10-31T04:43:41;12.90;99.90
8778;DHT22;4425;50.872;4.712;2022-10-31T04:46:08;12.90;99.90
8778;DHT22;4425;50.872;4.712;2022-10-31T04:48:35;12.90;99.90
8778;DHT22;4425;50.872;4.712;2022-10-31T04:51:03;13.00;99.90
8778;DHT22;4425;50.872;4.712;2022-10-31T04:53:32;12.90;99.90
8778;DHT22;4425;50.872;4.712;2022-10-31T04:55:59;13.00;99.90
8778;DHT22;4425;50.872;4.712;2022-10-31T04:58:28;13.00;99.90
8778;DHT22;4425;50.872;4.712;2022-10-31T05:00:55;12.90;99.90
8778;DHT22;4425;50.872;4.712;2022-10-31T05:03:23;13.00;99.90
8778;DHT22;4425;50.872;4.712;2022-10-31T05:05:51;13.00;99.90
8778;DHT22;4425;50.872;4.712;2022-10-31T05:08:19;12.90;99.90
8778;DHT22;4425;50.872;4.712;2022-10-31T05:10:47;12.90;99.90
8778;DHT22;4425;50.872;4.712;2022-10-31T05:13:14;12.90;99.90
8778;DHT22;4425;50.872;4.712;2022-10-31T05:15:43;12.90;99.90
8778;DHT22;4425;50.872;4.712;2022-10-31T05:18:11;13.00;99.90
8778;DHT22;4425;50.872;4.712;2022-10-31T05:20:39;13.10;99.90
8778;DHT22;4425;50.872;4.712;2022-10-31T05:23:06;13.00;99.90
8778;DHT22;4425;50.872;4.712;2022-10-31T05:25:33;13.00;99.90
8778;DHT22;4425;50.872;4.712;2022-10-31T05:28:01;13.10;99.90
8778;DHT22;4425;50.872;4.712;2022-10-31T05:30:30;13.00;99.90
8778;DHT22;4425;50.872;4.712;2022-10-31T05:32:58;13.00;99.90
8778;DHT22;4425;50.872;4.712;2022-10-31T05:35:27;13.00;99.90
8778;DHT22;4425;50.872;4.712;2022-10-31T05:37:55;12.90;99.90
8778;DHT22;4425;50.872;4.712;2022-10-31T05:40:24;12.90;99.90
8778;DHT22;4425;50.872;4.712;2022-10-31T05:42:54;13.00;99.90
8778;DHT22;4425;50.872;4.712;2022-10-31T05:45:25;13.00;99.90
8778;DHT22;4425;50.872;4.712;2022-10-31T05:47:53;13.00;99.90
8778;DHT22;4425;50.872;4.712;2022-10-31T05:50:21;12.90;99.90
8778;DHT22;4425;50.872;4.712;2022-10-31T05:52:54;13.00;99.90
8778;DHT22;4425;50.872;4.712;2022-10-31T05:55:21;12.90;99.90
8778;DHT22;4425;50.872;4.712;2022-10-31T05:57:48;13.00;99.90
8778;DHT22;4425;50.872;4.712;2022-10-31T06:00:16;12.90;99.90
8778;DHT22;4425;50.872;4.712;2022-10-31T06:02:45;12.90;99.90
8778;DHT22;4425;50.872;4.712;2022-10-31T06:05:13;12.90;99.90
8778;DHT22;4425;50.872;4.712;2022-10-31T06:07:41;12.90;99.90
8778;DHT22;4425;50.872;4.712;2022-10-31T06:10:09;12.80;99.90
8778;DHT22;4425;50.872;4.712;2022-10-31T06:12:37;12.80;99.90
8778;DHT22;4425;50.872;4.712;2022-10-31T06:15:08;12.80;99.90
8778;DHT22;4425;50.872;4.712;2022-10-31T06:17:36;12.80;99.90
8778;DHT22;4425;50.872;4.712;2022-10-31T06:20:06;12.80;99.90
8778;DHT22;4425;50.872;4.712;2022-10-31T06:22:37;12.80;99.90
8778;DHT22;4425;50.872;4.712;2022-10-31T06:25:05;12.90;99.90
8778;DHT22;4425;50.872;4.712;2022-10-31T06:27:33;12.80;99.90
8778;DHT22;4425;50.872;4.712;2022-10-31T06:30:02;12.80;99.90
8778;DHT22;4425;50.872;4.712;2022-10-31T06:32:29;12.90;99.90
8778;DHT22;4425;50.872;4.712;2022-10-31T06:34:56;13.10;99.90
8778;DHT22;4425;50.872;4.712;2022-10-31T06:37:25;12.90;99.90
8778;DHT22;4425;50.872;4.712;2022-10-31T06:39:52;12.90;99.90
8778;DHT22;4425;50.872;4.712;2022-10-31T06:42:19;13.00;99.90
8778;DHT22;4425;50.872;4.712;2022-10-31T06:44:46;13.00;99.90
8778;DHT22;4425;50.872;4.712;2022-10-31T06:47:14;13.00;99.90
8778;DHT22;4425;50.872;4.712;2022-10-31T06:49:45;13.00;99.90
8778;DHT22;4425;50.872;4.712;2022-10-31T06:52:12;13.00;99.90
8778;DHT22;4425;50.872;4.712;2022-10-31T06:54:41;13.00;99.90
8778;DHT22;4425;50.872;4.712;2022-10-31T06:57:08;13.00;99.90
8778;DHT22;4425;50.872;4.712;2022-10-31T06:59:36;13.00;99.90
8778;DHT22;4425;50.872;4.712;2022-10-31T07:02:05;13.00;99.90
8778;DHT22;4425;50.872;4.712;2022-10-31T07:04:36;13.00;99.90
8778;DHT22;4425;50.872;4.712;2022-10-31T07:07:07;13.00;99.90
8778;DHT22;4425;50.872;4.712;2022-10-31T07:09:35;13.00;99.90
8778;DHT22;4425;50.872;4.712;2022-10-31T07:12:15;13.00;99.90
8778;DHT22;4425;50.872;4.712;2022-10-31T07:14:43;13.10;99.90
8778;DHT22;4425;50.872;4.712;2022-10-31T07:17:10;13.10;99.90
8778;DHT22;4425;50.872;4.712;2022-10-31T07:19:39;13.10;99.90
8778;DHT22;4425;50.872;4.712;2022-10-31T07:22:08;13.10;99.90
8778;DHT22;4425;50.872;4.712;2022-10-31T07:24:38;13.00;99.90
8778;DHT22;4425;50.872;4.712;2022-10-31T07:27:20;13.00;99.90
8778;DHT22;4425;50.872;4.712;2022-10-31T07:29:48;13.10;99.90
8778;DHT22;4425;50.872;4.712;2022-10-31T07:32:16;13.20;99.90
8778;DHT22;4425;50.872;4.712;2022-10-31T07:34:44;13.20;99.90
8778;DHT22;4425;50.872;4.712;2022-10-31T07:37:11;13.10;99.90
8778;DHT22;4425;50.872;4.712;2022-10-31T07:39:39;13.20;99.90
8778;DHT22;4425;50.872;4.712;2022-10-31T07:42:07;13.20;99.90
8778;DHT22;4425;50.872;4.712;2022-10-31T07:44:38;13.20;99.90
8778;DHT22;4425;50.872;4.712;2022-10-31T07:47:05;13.10;99.90
8778;DHT22;4425;50.872;4.712;2022-10-31T07:49:31;13.20;99.90
8778;DHT22;4425;50.872;4.712;2022-10-31T07:51:59;13.20;99.90
8778;DHT22;4425;50.872;4.712;2022-10-31T07:54:26;13.30;99.90
8778;DHT22;4425;50.872;4.712;2022-10-31T07:56:55;13.30;99.90
8778;DHT22;4425;50.872;4.712;2022-10-31T07:59:22;13.30;99.90
8778;DHT22;4425;50.872;4.712;2022-10-31T08:01:52;13.30;99.90
8778;DHT22;4425;50.872;4.712;2022-10-31T08:04:21;13.40;99.90
8778;DHT22;4425;50.872;4.712;2022-10-31T08:06:49;13.60;99.90
8778;DHT22;4425;50.872;4.712;2022-10-31T08:09:17;13.50;99.90
8778;DHT22;4425;50.872;4.712;2022-10-31T08:11:44;13.60;99.90
8778;DHT22;4425;50.872;4.712;2022-10-31T08:14:11;13.70;99.90
8778;DHT22;4425;50.872;4.712;2022-10-31T08:16:38;13.80;99.90
8778;DHT22;4425;50.872;4.712;2022-10-31T08:19:06;13.70;99.90
8778;DHT22;4425;50.872;4.712;2022-10-31T08:21:34;13.70;99.90
8778;DHT22;4425;50.872;4.712;2022-10-31T08:24:01;13.70;99.90
8778;DHT22;4425;50.872;4.712;2022-10-31T08:26:28;13.80;99.90
8778;DHT22;4425;50.872;4.712;2022-10-31T08:28:56;13.90;99.90
8778;DHT22;4425;50.872;4.712;2022-10-31T08:31:23;13.90;99.90
8778;DHT22;4425;50.872;4.712;2022-10-31T08:33:53;14.00;99.90
8778;DHT22;4425;50.872;4.712;2022-10-31T08:36:22;14.20;99.90
8778;DHT22;4425;50.872;4.712;2022-10-31T08:38:49;14.30;99.90
8778;DHT22;4425;50.872;4.712;2022-10-31T08:41:16;14.40;99.90
8778;DHT22;4425;50.872;4.712;2022-10-31T08:43:43;14.40;99.90
8778;DHT22;4425;50.872;4.712;2022-10-31T08:46:11;14.40;99.90
8778;DHT22;4425;50.872;4.712;2022-10-31T08:48:38;14.50;99.90
8778;DHT22;4425;50.872;4.712;2022-10-31T08:51:05;14.50;99.90
8778;DHT22;4425;50.872;4.712;2022-10-31T08:53:34;14.50;99.90
8778;DHT22;4425;50.872;4.712;2022-10-31T08:56:03;14.50;99.90
8778;DHT22;4425;50.872;4.712;2022-10-31T08:58:30;14.70;99.90
8778;DHT22;4425;50.872;4.712;2022-10-31T09:01:00;14.80;99.90
8778;DHT22;4425;50.872;4.712;2022-10-31T09:03:29;14.90;99.90
8778;DHT22;4425;50.872;4.712;2022-10-31T09:05:59;14.90;99.90
8778;DHT22;4425;50.872;4.712;2022-10-31T09:08:28;14.90;99.90
8778;DHT22;4425;50.872;4.712;2022-10-31T09:10:57;15.00;99.90
8778;DHT22;4425;50.872;4.712;2022-10-31T09:13:25;15.00;99.90
8778;DHT22;4425;50.872;4.712;2022-10-31T09:15:52;15.00;99.90
8778;DHT22;4425;50.872;4.712;2022-10-31T09:18:21;15.10;99.90
8778;DHT22;4425;50.872;4.712;2022-10-31T09:20:49;15.10;99.90
8778;DHT22;4425;50.872;4.712;2022-10-31T09:23:21;15.20;99.90
8778;DHT22;4425;50.872;4.712;2022-10-31T09:25:49;15.20;99.90
8778;DHT22;4425;50.872;4.712;2022-10-31T09:28:19;15.30;99.90
8778;DHT22;4425;50.872;4.712;2022-10-31T09:30:49;15.30;99.90
8778;DHT22;4425;50.872;4.712;2022-10-31T09:33:18;15.40;99.90
8778;DHT22;4425;50.872;4.712;2022-10-31T09:35:45;15.40;99.90
8778;DHT22;4425;50.872;4.712;2022-10-31T09:38:15;15.40;99.90
8778;DHT22;4425;50.872;4.712;2022-10-31T09:40:44;15.50;99.90
8778;DHT22;4425;50.872;4.712;2022-10-31T09:43:18;15.70;99.90
8778;DHT22;4425;50.872;4.712;2022-10-31T09:45:55;15.80;99.90
8778;DHT22;4425;50.872;4.712;2022-10-31T09:48:32;15.70;99.90
8778;DHT22;4425;50.872;4.712;2022-10-31T09:51:05;15.80;99.90
8778;DHT22;4425;50.872;4.712;2022-10-31T09:53:37;15.70;99.90
8778;DHT22;4425;50.872;4.712;2022-10-31T09:56:11;15.70;99.90
8778;DHT22;4425;50.872;4.712;2022-10-31T09:58:44;15.70;99.90
8778;DHT22;4425;50.872;4.712;2022-10-31T10:01:23;15.70;99.90
8778;DHT22;4425;50.872;4.712;2022-10-31T10:03:57;15.80;99.90
8778;DHT22;4425;50.872;4.712;2022-10-31T10:06:28;16.00;99.90
8778;DHT22;4425;50.872;4.712;2022-10-31T10:08:56;16.10;99.90
8778;DHT22;4425;50.872;4.712;2022-10-31T10:11:36;16.10;99.90
8778;DHT22;4425;50.872;4.712;2022-10-31T10:14:19;16.20;99.90
8778;DHT22;4425;50.872;4.712;2022-10-31T10:17:08;16.10;99.90
8778;DHT22;4425;50.872;4.712;2022-10-31T10:19:53;16.20;99.90
8778;DHT22;4425;50.872;4.712;2022-10-31T10:22:30;16.20;99.90
8778;DHT22;4425;50.872;4.712;2022-10-31T10:25:19;16.20;99.90
8778;DHT22;4425;50.872;4.712;2022-10-31T10:27:54;16.20;99.90
8778;DHT22;4425;50.872;4.712;2022-10-31T10:30:29;16.10;99.90
8778;DHT22;4425;50.872;4.712;2022-10-31T10:33:07;16.00;99.90
8778;DHT22;4425;50.872;4.712;2022-10-31T10:35:40;16.10;99.90
8778;DHT22;4425;50.872;4.712;2022-10-31T10:38:15;16.20;99.90
8778;DHT22;4425;50.872;4.712;2022-10-31T10:40:44;16.30;99.90
8778;DHT22;4425;50.872;4.712;2022-10-31T10:43:20;16.30;99.90
8778;DHT22;4425;50.872;4.712;2022-10-31T10:46:14;16.40;99.90
8778;DHT22;4425;50.872;4.712;2022-10-31T10:49:16;16.60;99.90
8778;DHT22;4425;50.872;4.712;2022-10-31T10:51:47;16.80;99.90
8778;DHT22;4425;50.872;4.712;2022-10-31T10:54:39;17.10;99.90
8778;DHT22;4425;50.872;4.712;2022-10-31T10:57:19;17.20;99.90
8778;DHT22;4425;50.872;4.712;2022-10-31T10:59:50;17.30;99.90
8778;DHT22;4425;50.872;4.712;2022-10-31T11:02:22;17.30;99.90
8778;DHT22;4425;50.872;4.712;2022-10-31T11:04:52;17.40;99.90
8778;DHT22;4425;50.872;4.712;2022-10-31T11:07:24;17.40;99.90
8778;DHT22;4425;50.872;4.712;2022-10-31T11:10:03;17.60;99.90
8778;DHT22;4425;50.872;4.712;2022-10-31T11:12:33;17.60;99.90
8778;DHT22;4425;50.872;4.712;2022-10-31T11:15:15;17.70;99.90
8778;DHT22;4425;50.872;4.712;2022-10-31T11:18:19;17.90;99.90
8778;DHT22;4425;50.872;4.712;2022-10-31T11:21:20;18.00;99.90
8778;DHT22;4425;50.872;4.712;2022-10-31T11:24:11;18.10;99.90
8778;DHT22;4425;50.872;4.712;2022-10-31T11:27:12;18.00;99.90
8778;DHT22;4425;50.872;4.712;2022-10-31T11:29:48;18.00;99.90
8778;DHT22;4425;50.872;4.712;2022-10-31T11:39:16;17.90;99.90
8778;DHT22;4425;50.872;4.712;2022-10-31T11:41:45;18.10;99.90
8778;DHT22;4425;50.872;4.712;2022-10-31T11:44:16;18.20;99.90
8778;DHT22;4425;50.872;4.712;2022-10-31T11:46:47;18.30;99.90
8778;DHT22;4425;50.872;4.712;2022-10-31T11:49:27;18.30;99.90
8778;DHT22;4425;50.872;4.712;2022-10-31T11:51:59;18.40;99.90
8778;DHT22;4425;50.872;4.712;2022-10-31T11:54:31;18.50;99.90
8778;DHT22;4425;50.872;4.712;2022-10-31T11:56:59;18.60;99.90
8778;DHT22;4425;50.872;4.712;2022-10-31T11:59:32;18.50;99.90
8778;DHT22;4425;50.872;4.712;2022-10-31T12:02:01;18.60;99.90
8778;DHT22;4425;50.872;4.712;2022-10-31T12:04:35;18.60;99.90
8778;DHT22;4425;50.872;4.712;2022-10-31T12:07:04;18.60;99.90
8778;DHT22;4425;50.872;4.712;2022-10-31T12:09:43;18.60;99.90
8778;DHT22;4425;50.872;4.712;2022-10-31T12:18:40;18.60;99.90
8778;DHT22;4425;50.872;4.712;2022-10-31T12:24:24;18.70;99.90
8778;DHT22;4425;50.872;4.712;2022-10-31T12:27:05;18.80;99.90
8778;DHT22;4425;50.872;4.712;2022-10-31T12:30:08;18.90;99.90
8778;DHT22;4425;50.872;4.712;2022-10-31T12:32:46;18.90;99.90
8778;DHT22;4425;50.872;4.712;2022-10-31T12:35:33;19.00;99.90
8778;DHT22;4425;50.872;4.712;2022-10-31T12:38:15;19.10;99.90
8778;DHT22;4425;50.872;4.712;2022-10-31T12:41:03;19.10;99.90
8778;DHT22;4425;50.872;4.712;2022-10-31T12:47:04;19.20;99.90
8778;DHT22;4425;50.872;4.712;2022-10-31T12:49:45;19.20;99.90
8778;DHT22;4425;50.872;4.712;2022-10-31T12:52:25;19.20;99.90
8778;DHT22;4425;50.872;4.712;2022-10-31T12:55:08;19.20;99.90
8778;DHT22;4425;50.872;4.712;2022-10-31T12:57:40;19.20;99.90
8778;DHT22;4425;50.872;4.712;2022-10-31T13:00:15;19.30;99.90
8778;DHT22;4425;50.872;4.712;2022-10-31T13:02:53;19.30;99.90
8778;DHT22;4425;50.872;4.712;2022-10-31T13:05:30;19.40;99.90
8778;DHT22;4425;50.872;4.712;2022-10-31T13:08:03;19.50;99.90
8778;DHT22;4425;50.872;4.712;2022-10-31T13:10:36;19.50;99.90
8778;DHT22;4425;50.872;4.712;2022-10-31T13:13:13;19.60;99.90
8778;DHT22;4425;50.872;4.712;2022-10-31T13:15:48;19.60;99.90
8778;DHT22;4425;50.872;4.712;2022-10-31T13:18:26;19.60;99.90
8778;DHT22;4425;50.872;4.712;2022-10-31T13:20:55;19.60;99.90
8778;DHT22;4425;50.872;4.712;2022-10-31T13:23:28;19.70;99.90
8778;DHT22;4425;50.872;4.712;2022-10-31T13:25:59;19.80;99.90
8778;DHT22;4425;50.872;4.712;2022-10-31T13:28:36;19.70;99.90
8778;DHT22;4425;50.872;4.712;2022-10-31T13:31:13;19.80;99.90
8778;DHT22;4425;50.872;4.712;2022-10-31T13:33:46;19.70;99.90
8778;DHT22;4425;50.872;4.712;2022-10-31T13:36:21;19.70;99.90
8778;DHT22;4425;50.872;4.712;2022-10-31T13:38:54;19.70;99.90
8778;DHT22;4425;50.872;4.712;2022-10-31T13:41:39;19.70;99.90
8778;DHT22;4425;50.872;4.712;2022-10-31T13:44:13;19.70;99.90
8778;DHT22;4425;50.872;4.712;2022-10-31T13:46:44;19.60;99.90
8778;DHT22;4425;50.872;4.712;2022-10-31T13:49:37;19.50;99.90
8778;DHT22;4425;50.872;4.712;2022-10-31T13:52:16;19.50;99.90
8778;DHT22;4425;50.872;4.712;2022-10-31T13:54:51;19.40;99.90
8778;DHT22;4425;50.872;4.712;2022-10-31T14:00:24;19.20;99.90
8778;DHT22;4425;50.872;4.712;2022-10-31T14:02:56;19.20;99.90
8778;DHT22;4425;50.872;4.712;2022-10-31T14:05:30;19.20;99.90
8778;DHT22;4425;50.872;4.712;2022-10-31T14:08:02;19.10;99.90
8778;DHT22;4425;50.872;4.712;2022-10-31T14:10:32;19.10;99.90
8778;DHT22;4425;50.872;4.712;2022-10-31T14:13:06;19.10;99.90
8778;DHT22;4425;50.872;4.712;2022-10-31T14:15:39;19.10;99.90
8778;DHT22;4425;50.872;4.712;2022-10-31T14:18:22;19.10;99.90
8778;DHT22;4425;50.872;4.712;2022-10-31T14:20:52;19.00;99.90
8778;DHT22;4425;50.872;4.712;2022-10-31T14:23:38;18.90;99.90
8778;DHT22;4425;50.872;4.712;2022-10-31T14:26:15;18.90;99.90
8778;DHT22;4425;50.872;4.712;2022-10-31T14:28:45;18.80;99.90
8778;DHT22;4425;50.872;4.712;2022-10-31T14:31:29;18.80;99.90
8778;DHT22;4425;50.872;4.712;2022-10-31T14:34:03;18.70;99.90
8778;DHT22;4425;50.872;4.712;2022-10-31T14:36:41;18.70;99.90
8778;DHT22;4425;50.872;4.712;2022-10-31T14:39:19;18.70;99.90
8778;DHT22;4425;50.872;4.712;2022-10-31T14:42:02;18.70;99.90
8778;DHT22;4425;50.872;4.712;2022-10-31T14:47:50;18.60;99.90
8778;DHT22;4425;50.872;4.712;2022-10-31T14:50:33;18.60;99.90
8778;DHT22;4425;50.872;4.712;2022-10-31T14:53:20;18.60;99.90
8778;DHT22;4425;50.872;4.712;2022-10-31T14:55:52;18.50;99.90
8778;DHT22;4425;50.872;4.712;2022-10-31T14:58:23;18.50;99.90
8778;DHT22;4425;50.872;4.712;2022-10-31T15:00:55;18.50;99.90
8778;DHT22;4425;50.872;4.712;2022-10-31T15:03:28;18.50;99.90
8778;DHT22;4425;50.872;4.712;2022-10-31T15:06:00;18.50;99.90
8778;DHT22;4425;50.872;4.712;2022-10-31T15:08:38;18.40;99.90
8778;DHT22;4425;50.872;4.712;2022-10-31T15:11:18;18.50;99.90
8778;DHT22;4425;50.872;4.712;2022-10-31T15:13:47;18.50;99.90
8778;DHT22;4425;50.872;4.712;2022-10-31T15:16:18;18.40;99.90
8778;DHT22;4425;50.872;4.712;2022-10-31T15:18:50;18.30;99.90
8778;DHT22;4425;50.872;4.712;2022-10-31T15:21:20;18.30;99.90
8778;DHT22;4425;50.872;4.712;2022-10-31T15:23:50;18.30;99.90
8778;DHT22;4425;50.872;4.712;2022-10-31T15:26:21;18.20;99.90
8778;DHT22;4425;50.872;4.712;2022-10-31T15:28:58;18.10;99.90
8778;DHT22;4425;50.872;4.712;2022-10-31T15:31:26;18.10;99.90
8778;DHT22;4425;50.872;4.712;2022-10-31T15:33:53;18.00;99.90
8778;DHT22;4425;50.872;4.712;2022-10-31T15:36:24;17.90;99.90
8778;DHT22;4425;50.872;4.712;2022-10-31T15:38:55;17.80;99.90
8778;DHT22;4425;50.872;4.712;2022-10-31T15:41:28;17.80;99.90
8778;DHT22;4425;50.872;4.712;2022-10-31T15:44:03;17.70;99.90
8778;DHT22;4425;50.872;4.712;2022-10-31T15:46:33;17.60;99.90
8778;DHT22;4425;50.872;4.712;2022-10-31T15:49:30;17.60;99.90
8778;DHT22;4425;50.872;4.712;2022-10-31T15:52:09;17.50;99.90
8778;DHT22;4425;50.872;4.712;2022-10-31T15:54:55;17.40;99.90
8778;DHT22;4425;50.872;4.712;2022-10-31T15:57:24;17.40;99.90
8778;DHT22;4425;50.872;4.712;2022-10-31T15:59:57;17.40;99.90
8778;DHT22;4425;50.872;4.712;2022-10-31T16:02:29;17.30;99.90
8778;DHT22;4425;50.872;4.712;2022-10-31T16:05:01;17.30;99.90
8778;DHT22;4425;50.872;4.712;2022-10-31T16:07:31;17.20;99.90
8778;DHT22;4425;50.872;4.712;2022-10-31T16:10:27;17.10;99.90
8778;DHT22;4425;50.872;4.712;2022-10-31T16:13:08;17.10;99.90
8778;DHT22;4425;50.872;4.712;2022-10-31T16:15:48;17.00;99.90
8778;DHT22;4425;50.872;4.712;2022-10-31T16:18:17;16.90;99.90
8778;DHT22;4425;50.872;4.712;2022-10-31T16:20:48;16.90;99.90
8778;DHT22;4425;50.872;4.712;2022-10-31T16:23:19;16.80;99.90
8778;DHT22;4425;50.872;4.712;2022-10-31T16:25:49;16.80;99.90
8778;DHT22;4425;50.872;4.712;2022-10-31T16:28:19;16.80;99.90
8778;DHT22;4425;50.872;4.712;2022-10-31T16:30:49;16.70;99.90
8778;DHT22;4425;50.872;4.712;2022-10-31T16:34:12;16.70;99.90
8778;DHT22;4425;50.872;4.712;2022-10-31T16:36:41;16.70;99.90
8778;DHT22;4425;50.872;4.712;2022-10-31T16:39:08;16.60;99.90
8778;DHT22;4425;50.872;4.712;2022-10-31T16:41:39;16.60;99.90
8778;DHT22;4425;50.872;4.712;2022-10-31T16:44:31;16.60;99.90
8778;DHT22;4425;50.872;4.712;2022-10-31T16:47:38;16.70;99.90
8778;DHT22;4425;50.872;4.712;2022-10-31T16:50:22;16.70;99.90
8778;DHT22;4425;50.872;4.712;2022-10-31T16:52:50;16.60;99.90
8778;DHT22;4425;50.872;4.712;2022-10-31T16:55:18;16.60;99.90
8778;DHT22;4425;50.872;4.712;2022-10-31T16:57:51;16.60;99.90
8778;DHT22;4425;50.872;4.712;2022-10-31T17:00:22;16.60;99.90
8778;DHT22;4425;50.872;4.712;2022-10-31T17:02:54;16.60;99.90
8778;DHT22;4425;50.872;4.712;2022-10-31T17:05:31;16.50;99.90
8778;DHT22;4425;50.872;4.712;2022-10-31T17:08:01;16.50;99.90